Archival Weather

Downtown Manhattan/Wall St

New York, Downtown Manhattan/Wall St (KJRB)

Report from: Friday, February 23, 2024 7:56 AM EST
Current time: Wednesday, May 29, 2024 8:19 PM EDT

Current weather – Weather history – Daily summaries
Weather forecast

Present weatherMist
Temperature5.6°C (42.1°F)
Wind chill4.0°C (39.2°F)
Dew point3.9°C (39.0°F)
Winds 4 kts (2.1 m/s, 4.6 mph) South (190°)
Visibility5 mi. (8 km)
Clouds Ceiling: Overcast 6,500 ft. (1,981 m)
Altimeter29.54 in.Hg (1000 mB)
Relative humidity89 %
Density altitude-570 ft. (-174 m)
Sea-level pressure100.0 kPa (1000 mB, 29.54 in.Hg)
Remarks Fully automated report
System requires maintenance
Automated weather observing station with precipitation discriminator
Precipitation sensor not operating
Flight conditions Visual Meteorological Conditions
Raw dataKJRB 231256Z AUTO 19004KT 5SM BR OVC065 06/04 A2954 RMK AO2 SLP002 T00560039 PNO $
An error has occurred. This application may no longer respond until reloaded. Reload 🗙